Time;durP1;ratioP1;P1;durP2;ratioP2;P2;SDS_P1;SDS_P2;PMS_P1;PMS_P2;Temp;Humidity;BMP_temperature;BMP_pressure;BME280_temperature;BME280_humidity;BME280_pressure;Samples;Min_cycle;Max_cycle;Signal;HPM_P1;HPM_P2
2022/03/16 00:01:59;;;;;;;11.68;7.10;;;;;;;-2.98;56.49;101586.31;5106235;28;20320;-62
2022/03/16 00:04:24;;;;;;;11.52;6.97;;;;;;;-2.94;56.33;101587.38;5105840;28;20243;-62
2022/03/16 00:06:50;;;;;;;10.88;6.80;;;;;;;-3.08;57.22;101586.47;5105875;28;20016;-62
2022/03/16 00:09:16;;;;;;;11.02;7.03;;;;;;;-2.81;56.44;101589.94;5088376;28;20025;-62
2022/03/16 00:11:41;;;;;;;12.07;6.80;;;;;;;-3.02;55.88;101591.97;5085735;28;20063;-62
2022/03/16 00:14:07;;;;;;;11.88;7.03;;;;;;;-2.80;57.29;101589.13;5088230;28;20035;-62
2022/03/16 00:16:32;;;;;;;9.15;6.63;;;;;;;-2.67;56.44;101602.59;5105304;28;20032;-61
2022/03/16 00:18:58;;;;;;;12.93;7.68;;;;;;;-2.65;55.61;101599.38;5105769;28;20027;-61
2022/03/16 00:21:23;;;;;;;13.43;7.55;;;;;;;-2.68;55.95;101594.13;5104288;28;20024;-61
2022/03/16 00:23:49;;;;;;;13.25;7.35;;;;;;;-2.60;57.07;101592.91;5105636;28;20028;-62
2022/03/16 00:26:15;;;;;;;21.80;8.05;;;;;;;-2.62;55.58;101580.94;5104240;28;20035;-61
2022/03/16 00:28:41;;;;;;;26.50;7.72;;;;;;;-2.64;56.34;101591.00;5104852;28;20337;-62
2022/03/16 00:31:06;;;;;;;15.80;7.30;;;;;;;-2.58;56.40;101595.53;5105130;28;20024;-63
2022/03/16 00:33:32;;;;;;;15.68;8.13;;;;;;;-2.67;56.80;101594.97;5105190;28;20020;-62
2022/03/16 00:35:58;;;;;;;14.18;7.75;;;;;;;-2.71;56.51;101598.97;5104591;28;20032;-62
2022/03/16 00:38:23;;;;;;;13.43;7.47;;;;;;;-2.62;56.48;101601.22;5104969;28;20027;-62
2022/03/16 00:40:49;;;;;;;11.70;6.85;;;;;;;-2.76;56.72;101602.88;5105048;28;20232;-62
2022/03/16 00:43:15;;;;;;;12.57;7.40;;;;;;;-2.61;56.13;101614.00;5105167;28;20028;-63
2022/03/16 00:45:40;;;;;;;16.02;8.05;;;;;;;-2.67;57.24;101602.59;5104965;28;20034;-62
2022/03/16 00:48:06;;;;;;;12.63;7.93;;;;;;;-2.73;55.75;101605.63;5105076;28;20325;-62
2022/03/16 00:50:34;;;;;;;13.30;7.97;;;;;;;-3.03;56.82;101602.88;5120848;28;20028;-62
2022/03/16 00:53:00;;;;;;;13.95;7.75;;;;;;;-3.15;57.14;101610.56;5104750;28;20086;-62
2022/03/16 00:55:26;;;;;;;15.43;8.40;;;;;;;-3.15;57.25;101607.13;5104759;28;20321;-63
2022/03/16 00:57:52;;;;;;;14.88;8.32;;;;;;;-3.21;56.50;101609.28;5104761;28;20062;-63
2022/03/16 01:00:17;;;;;;;15.65;9.48;;;;;;;-3.34;57.67;101613.50;5103310;28;20391;-63
2022/03/16 01:02:43;;;;;;;15.50;8.93;;;;;;;-3.44;57.72;101610.28;5104720;28;20028;-63
2022/03/16 01:05:09;;;;;;;13.55;8.38;;;;;;;-3.41;57.71;101615.56;5104539;28;20028;-62
2022/03/16 01:07:35;;;;;;;14.05;8.82;;;;;;;-3.51;57.91;101611.53;5104336;28;20019;-62
2022/03/16 01:10:00;;;;;;;17.10;9.07;;;;;;;-3.46;58.35;101610.19;5104571;28;20074;-63
2022/03/16 01:12:26;;;;;;;15.40;8.65;;;;;;;-3.44;58.13;101610.28;5104355;28;20324;-62
2022/03/16 01:14:51;;;;;;;16.65;9.00;;;;;;;-3.50;57.91;101604.03;5104310;28;20048;-62
2022/03/16 01:17:17;;;;;;;12.35;8.32;;;;;;;-3.69;58.39;101604.47;5104150;28;20069;-62
2022/03/16 01:19:43;;;;;;;15.00;7.95;;;;;;;-3.73;57.91;101610.09;5104095;28;20028;-62
2022/03/16 01:22:08;;;;;;;17.65;8.57;;;;;;;-3.79;58.05;101614.75;5104179;28;20133;-62
2022/03/16 01:24:34;;;;;;;19.58;9.10;;;;;;;-3.90;59.13;101608.94;5104073;28;20035;-62
2022/03/16 01:27:00;;;;;;;15.27;8.93;;;;;;;-3.77;59.10;101608.13;5103161;28;20027;-63
2022/03/16 01:29:26;;;;;;;15.18;9.15;;;;;;;-3.83;58.58;101607.72;5103517;28;20054;-62
2022/03/16 01:31:55;;;;;;;19.13;8.85;;;;;;;-3.76;58.21;101616.59;5104031;28;20091;-63
2022/03/16 01:34:21;;;;;;;13.45;8.55;;;;;;;-3.68;58.90;101618.00;5104042;28;20024;-63
2022/03/16 01:36:48;;;;;;;14.18;8.70;;;;;;;-3.93;58.29;101613.81;5119771;28;20020;-62
2022/03/16 01:39:14;;;;;;;13.02;9.25;;;;;;;-3.94;58.46;101606.09;5102879;28;20031;-61
2022/03/16 01:41:42;;;;;;;17.17;9.48;;;;;;;-3.90;59.71;101621.59;5103878;28;20221;-61
2022/03/16 01:44:09;;;;;;;16.77;9.55;;;;;;;-4.31;58.93;101556.38;5103889;28;20024;-62
2022/03/16 01:46:35;;;;;;;16.13;9.20;;;;;;;-3.81;59.79;101624.75;5103857;28;20321;-62
2022/03/16 01:49:01;;;;;;;16.90;9.60;;;;;;;-3.85;59.68;101617.75;5103751;28;20095;-62
2022/03/16 01:51:27;;;;;;;19.60;9.38;;;;;;;-3.82;59.46;101619.56;5103760;28;20026;-63
2022/03/16 01:53:52;;;;;;;17.75;9.68;;;;;;;-3.97;60.04;101616.03;5102569;28;20035;-62
2022/03/16 01:56:18;;;;;;;16.58;8.85;;;;;;;-3.87;60.19;101613.34;5103842;28;20020;-61
2022/03/16 01:58:45;;;;;;;16.60;9.25;;;;;;;-3.86;58.60;101627.75;5103676;28;20028;-62
2022/03/16 02:01:10;;;;;;;14.90;9.02;;;;;;;-4.01;59.81;101623.38;5102306;28;20027;-62
2022/03/16 02:03:36;;;;;;;15.15;9.15;;;;;;;-4.07;59.71;101620.44;5103363;28;20032;-61
2022/03/16 02:06:02;;;;;;;14.18;8.93;;;;;;;-3.95;59.31;101622.06;5103705;28;20035;-62
2022/03/16 02:08:32;;;;;;;19.50;8.98;;;;;;;-3.97;59.45;101637.13;5103413;28;20024;-61
2022/03/16 02:10:58;;;;;;;13.32;8.48;;;;;;;-4.04;59.54;101620.63;5119273;28;20036;-61
2022/03/16 02:13:25;;;;;;;17.25;9.18;;;;;;;-4.04;60.50;101613.06;5103434;28;20115;-61
2022/03/16 02:15:50;;;;;;;15.98;8.98;;;;;;;-3.92;60.50;101609.59;5103445;28;20333;-61
2022/03/16 02:18:16;;;;;;;16.58;9.10;;;;;;;-3.90;60.24;101608.94;5103470;28;20058;-62
2022/03/16 02:20:42;;;;;;;15.27;8.95;;;;;;;-3.83;59.29;101615.31;5103382;28;20087;-62
2022/03/16 02:23:08;;;;;;;12.65;8.25;;;;;;;-3.86;59.37;101617.63;5103332;28;20344;-62
2022/03/16 02:25:48;;;;;;;17.98;9.23;;;;;;;-4.25;59.57;101566.03;5103259;28;20035;-61
2022/03/16 02:28:14;;;;;;;16.23;9.60;;;;;;;-3.94;59.94;101613.69;5103268;28;20024;-62
2022/03/16 02:30:39;;;;;;;20.08;10.07;;;;;;;-4.11;60.57;101627.72;5103252;28;20026;-62
2022/03/16 02:33:05;;;;;;;19.38;10.90;;;;;;;-4.12;60.21;101618.34;5102220;28;20043;-62
2022/03/16 02:35:31;;;;;;;16.75;10.32;;;;;;;-4.19;61.17;101604.41;5102239;28;20050;-62
2022/03/16 02:38:00;;;;;;;18.27;9.98;;;;;;;-4.08;60.25;101622.88;5103230;28;20024;-61
2022/03/16 02:40:26;;;;;;;13.18;8.88;;;;;;;-4.07;60.43;101620.44;5107542;28;20043;-62
2022/03/16 02:42:52;;;;;;;13.80;8.27;;;;;;;-3.95;61.31;101632.19;5107376;28;20028;-62
2022/03/16 02:45:18;;;;;;;15.32;8.88;;;;;;;-4.22;59.83;101617.72;5107176;28;20047;-60
2022/03/16 02:47:44;;;;;;;14.68;8.88;;;;;;;-4.34;60.44;101615.22;5107203;28;20253;-61
2022/03/16 02:50:12;;;;;;;15.43;9.18;;;;;;;-4.18;60.58;101627.25;5107294;28;20343;-63
2022/03/16 02:52:38;;;;;;;14.02;8.18;;;;;;;-4.20;60.75;101617.84;5107162;28;20016;-62
2022/03/16 02:55:04;;;;;;;13.30;8.88;;;;;;;-4.21;61.58;101632.13;5107202;28;20026;-62
2022/03/16 02:57:30;;;;;;;16.40;8.43;;;;;;;-4.31;60.15;101617.06;5107035;28;20024;-62
2022/03/16 02:59:56;;;;;;;16.38;8.88;;;;;;;-4.06;59.51;101627.25;5106996;28;20016;-63
2022/03/16 03:02:21;;;;;;;13.60;9.30;;;;;;;-4.10;60.54;101621.88;5107066;28;20027;-63
2022/03/16 03:04:47;;;;;;;15.05;9.25;;;;;;;-4.04;59.57;101622.31;5106901;28;20313;-62
2022/03/16 03:07:13;;;;;;;19.27;9.20;;;;;;;-4.05;59.41;101623.06;5106752;28;20024;-63
2022/03/16 03:09:38;;;;;;;14.70;9.38;;;;;;;-4.03;59.71;101634.19;5106772;28;20292;-63
2022/03/16 03:12:05;;;;;;;16.25;8.40;;;;;;;-3.96;59.92;101626.25;5105281;28;20056;-63
2022/03/16 03:14:31;;;;;;;15.48;8.95;;;;;;;-3.88;59.79;101629.28;5106684;28;20023;-62
2022/03/16 03:16:57;;;;;;;17.38;9.80;;;;;;;-3.92;60.49;101633.28;5106720;28;20093;-62
2022/03/16 03:19:22;;;;;;;15.80;8.57;;;;;;;-3.91;60.57;101641.75;5105416;28;20059;-63
2022/03/16 03:21:48;;;;;;;16.20;9.45;;;;;;;-4.04;60.26;101638.34;5106719;28;20031;-62
2022/03/16 03:24:14;;;;;;;14.40;9.00;;;;;;;-3.83;60.30;101645.69;5106567;28;20024;-63
2022/03/16 03:26:40;;;;;;;17.83;9.80;;;;;;;-3.88;59.50;101635.22;5106528;28;20030;-63
2022/03/16 03:29:06;;;;;;;17.98;9.93;;;;;;;-3.84;60.20;101641.38;5106446;28;20024;-63
2022/03/16 03:31:32;;;;;;;18.05;8.90;;;;;;;-3.83;61.37;101646.56;5106552;28;20043;-63
2022/03/16 03:33:57;;;;;;;14.05;8.85;;;;;;;-3.76;61.05;101646.97;5106192;28;20020;-63
2022/03/16 03:36:23;;;;;;;13.93;8.95;;;;;;;-3.79;60.94;101652.72;5106168;28;20162;-63
2022/03/16 03:38:48;;;;;;;17.92;9.85;;;;;;;-3.74;61.12;101655.56;5106007;28;20073;-63
2022/03/16 03:41:14;;;;;;;15.77;9.77;;;;;;;-3.83;61.28;101655.81;5105819;28;20286;-64
2022/03/16 03:43:40;;;;;;;16.10;9.18;;;;;;;-3.73;61.45;101655.66;5106079;28;20023;-63
2022/03/16 03:46:05;;;;;;;17.15;9.93;;;;;;;-3.68;60.99;101661.03;5104768;28;20061;-63
2022/03/16 03:48:31;;;;;;;16.02;9.13;;;;;;;-3.67;60.89;101665.31;5105959;28;20036;-63
2022/03/16 03:50:56;;;;;;;14.82;8.80;;;;;;;-3.63;61.26;101667.28;5105163;28;20321;-63
2022/03/16 03:53:22;;;;;;;20.98;10.60;;;;;;;-3.64;61.08;101663.00;5105869;28;20443;-62
2022/03/16 03:55:47;;;;;;;18.27;10.38;;;;;;;-3.76;60.24;101670.63;5104724;28;20374;-62
2022/03/16 03:58:13;;;;;;;17.10;10.15;;;;;;;-3.77;61.07;101670.53;5105381;28;20023;-63
2022/03/16 04:00:38;;;;;;;17.05;9.02;;;;;;;-3.92;60.54;101670.34;5104679;28;20019;-62
2022/03/16 04:03:04;;;;;;;14.32;8.95;;;;;;;-4.00;61.71;101670.69;5105645;28;20088;-62
2022/03/16 04:05:29;;;;;;;14.45;8.80;;;;;;;-3.91;61.61;101674.63;5104518;28;20028;-63
2022/03/16 04:07:55;;;;;;;15.68;8.70;;;;;;;-3.88;61.08;101674.84;5105519;28;20098;-63
2022/03/16 04:10:21;;;;;;;22.73;10.43;;;;;;;-3.79;61.55;101680.56;5105230;28;20029;-62
2022/03/16 04:12:46;;;;;;;18.17;9.13;;;;;;;-3.83;61.56;101676.06;5105623;28;20031;-63
2022/03/16 04:15:12;;;;;;;13.95;8.95;;;;;;;-3.93;60.80;101686.28;5105569;28;20024;-63
2022/03/16 04:17:38;;;;;;;16.70;9.52;;;;;;;-4.00;61.01;101669.81;5121490;28;20032;-63
2022/03/16 04:20:06;;;;;;;15.07;9.23;;;;;;;-4.30;61.22;101628.97;5105387;28;20107;-63
2022/03/16 04:22:32;;;;;;;20.75;9.13;;;;;;;-4.04;61.08;101673.78;5105509;28;20021;-64
2022/03/16 04:24:57;;;;;;;15.70;9.15;;;;;;;-4.11;60.46;101686.75;5105279;28;20389;-63
2022/03/16 04:27:23;;;;;;;14.05;9.02;;;;;;;-4.12;60.88;101672.34;5105169;28;20016;-63
2022/03/16 04:29:49;;;;;;;18.35;9.07;;;;;;;-4.10;61.40;101691.06;5121130;28;20094;-63
2022/03/16 04:32:15;;;;;;;12.60;8.60;;;;;;;-4.04;60.21;101683.91;5104175;28;20054;-63
2022/03/16 04:34:40;;;;;;;17.73;9.23;;;;;;;-3.92;60.74;101696.53;5105078;28;20213;-63
2022/03/16 04:37:06;;;;;;;17.17;8.48;;;;;;;-3.93;60.13;101688.81;5104914;28;20086;-63
2022/03/16 04:39:32;;;;;;;14.77;8.90;;;;;;;-3.94;60.98;101694.69;5120912;28;20032;-62
2022/03/16 04:41:57;;;;;;;13.43;8.63;;;;;;;-3.82;60.50;101705.63;5120592;28;20197;-63
2022/03/16 04:44:23;;;;;;;18.00;9.35;;;;;;;-4.08;61.14;101706.34;5104585;28;20024;-63
2022/03/16 04:46:49;;;;;;;16.60;8.63;;;;;;;-4.23;61.72;101704.50;5120729;28;20020;-62
2022/03/16 04:49:14;;;;;;;13.32;8.10;;;;;;;-4.27;61.92;101704.19;5104667;28;20028;-60
2022/03/16 04:51:40;;;;;;;15.13;8.80;;;;;;;-4.36;62.22;101697.69;5104821;28;20317;-60
2022/03/16 04:54:07;;;;;;;14.50;8.40;;;;;;;-4.31;61.54;101712.31;5104556;28;20024;-59
2022/03/16 04:56:35;;;;;;;16.08;9.85;;;;;;;-4.14;61.16;101708.47;5103965;28;20024;-59
2022/03/16 04:59:04;;;;;;;13.45;9.10;;;;;;;-4.01;61.56;101708.53;5103888;28;20022;-60
2022/03/16 05:01:30;;;;;;;16.10;8.98;;;;;;;-4.17;60.15;101712.50;5101890;28;20031;-59
2022/03/16 05:03:55;;;;;;;13.68;8.77;;;;;;;-4.26;60.52;101711.88;5103096;28;20114;-58
2022/03/16 05:06:21;;;;;;;11.93;8.45;;;;;;;-4.31;61.21;101700.53;5103160;28;20320;-57
2022/03/16 05:08:47;;;;;;;17.10;8.23;;;;;;;-4.25;61.36;101700.09;5104182;28;20073;-57
2022/03/16 05:11:14;;;;;;;13.85;8.68;;;;;;;-4.33;61.45;101717.25;5103958;28;20040;-59
2022/03/16 05:13:40;;;;;;;17.00;8.68;;;;;;;-4.15;62.24;101715.16;5104104;28;20103;-59
2022/03/16 05:16:07;;;;;;;14.88;9.15;;;;;;;-4.10;59.92;101718.91;5103050;28;20209;-59
2022/03/16 05:18:33;;;;;;;12.45;9.32;;;;;;;-3.85;61.15;101708.84;5103214;28;20073;-60
2022/03/16 05:20:59;;;;;;;20.60;11.55;;;;;;;-3.64;60.32;101711.09;5103974;28;20031;-59
2022/03/16 05:23:25;;;;;;;17.00;9.35;;;;;;;-3.49;61.11;101713.81;5103341;28;20104;-59
2022/03/16 05:25:50;;;;;;;14.63;8.25;;;;;;;-3.41;59.60;101709.25;5103204;28;20069;-59
2022/03/16 05:28:17;;;;;;;14.60;8.52;;;;;;;-3.44;59.92;101704.88;5103345;28;20182;-58
2022/03/16 05:30:43;;;;;;;17.35;9.07;;;;;;;-3.46;58.72;101711.50;5103043;28;20087;-59
2022/03/16 05:33:08;;;;;;;23.00;9.00;;;;;;;-3.31;60.16;101710.00;5102921;28;20024;-60
2022/03/16 05:35:34;;;;;;;13.80;8.18;;;;;;;-3.15;59.04;101714.44;5102979;28;20090;-60
2022/03/16 05:38:02;;;;;;;16.65;8.13;;;;;;;-3.20;57.80;101718.31;5103327;28;20020;-59
2022/03/16 05:40:28;;;;;;;21.65;8.65;;;;;;;-3.20;57.63;101725.03;5103568;28;20169;-59
2022/03/16 05:42:54;;;;;;;13.35;8.35;;;;;;;-3.02;58.21;101721.22;5103374;28;20059;-60
2022/03/16 05:45:19;;;;;;;13.73;7.97;;;;;;;-2.87;58.82;101721.34;5102508;28;20039;-59
2022/03/16 05:47:45;;;;;;;13.75;7.55;;;;;;;-2.79;58.26;101727.78;5103776;28;20526;-59
2022/03/16 05:50:10;;;;;;;14.70;8.10;;;;;;;-2.86;56.76;101720.56;5103784;28;20058;-60
2022/03/16 05:52:37;;;;;;;14.63;8.07;;;;;;;-2.91;56.50;101728.63;5103502;28;20016;-59
2022/03/16 05:55:04;;;;;;;14.45;7.97;;;;;;;-2.95;57.77;101728.44;5103368;28;20023;-60
2022/03/16 05:57:29;;;;;;;12.02;7.88;;;;;;;-2.96;57.43;101729.22;5103246;28;20373;-60
2022/03/16 05:59:55;;;;;;;11.52;7.88;;;;;;;-3.08;57.77;101735.13;5103308;28;20027;-59
2022/03/16 06:02:21;;;;;;;14.95;8.35;;;;;;;-3.04;58.02;101726.94;5103571;28;20343;-59
2022/03/16 06:04:47;;;;;;;12.95;8.18;;;;;;;-2.98;58.17;101738.38;5103449;28;20027;-59
2022/03/16 06:07:13;;;;;;;16.10;7.30;;;;;;;-2.85;57.20;101718.91;5102269;28;20023;-60
2022/03/16 06:09:40;;;;;;;15.73;8.45;;;;;;;-2.63;56.91;101723.72;5083034;28;20058;-59
2022/03/16 06:12:06;;;;;;;13.07;7.93;;;;;;;-2.36;58.02;101738.97;5079247;28;20075;-59
2022/03/16 06:14:32;;;;;;;14.82;8.07;;;;;;;-2.21;57.13;101732.31;5087149;28;20100;-59
2022/03/16 06:16:58;;;;;;;14.85;8.02;;;;;;;-2.10;56.61;101735.56;5102765;28;20035;-59
2022/03/16 06:19:24;;;;;;;12.73;7.65;;;;;;;-1.96;55.61;101734.75;5102359;28;20027;-59
2022/03/16 06:21:50;;;;;;;12.48;8.77;;;;;;;-1.47;54.50;101720.78;5103132;28;20087;-60
2022/03/16 06:24:16;;;;;;;13.00;7.88;;;;;;;-0.93;53.57;101735.03;5103373;28;20061;-59
2022/03/16 06:26:42;;;;;;;9.52;6.82;;;;;;;-0.19;52.05;101721.41;5103434;28;20028;-60
2022/03/16 06:29:08;;;;;;;16.65;7.57;;;;;;;0.63;48.65;101730.88;5103399;28;20024;-60
2022/03/16 06:31:34;;;;;;;11.15;8.10;;;;;;;1.20;47.95;101727.81;5103275;28;20035;-60
2022/03/16 06:34:00;;;;;;;10.68;6.65;;;;;;;1.42;45.29;101737.41;5102020;28;20020;-60
2022/03/16 06:36:26;;;;;;;14.25;7.78;;;;;;;1.95;44.67;101737.34;5101870;28;20020;-60
2022/03/16 06:38:53;;;;;;;10.30;6.65;;;;;;;1.34;44.97;101734.47;5103245;28;20024;-61
2022/03/16 06:41:18;;;;;;;11.55;7.03;;;;;;;1.16;45.73;101739.53;5103274;28;20031;-60
2022/03/16 06:43:44;;;;;;;12.38;7.40;;;;;;;1.70;44.88;101738.75;5103419;28;20020;-59
2022/03/16 06:46:10;;;;;;;9.75;6.07;;;;;;;2.21;44.34;101743.69;5103001;28;20028;-60
2022/03/16 06:48:35;;;;;;;10.63;6.53;;;;;;;2.70;43.19;101745.03;5101858;28;20027;-60
2022/03/16 06:51:01;;;;;;;11.05;6.97;;;;;;;3.20;41.86;101737.78;5102139;28;20024;-60
2022/03/16 06:53:28;;;;;;;12.10;6.85;;;;;;;3.35;40.53;101740.09;5102866;28;20317;-60
2022/03/16 06:55:54;;;;;;;20.50;6.95;;;;;;;3.58;39.89;101739.34;5102720;28;20016;-60
2022/03/16 06:58:19;;;;;;;13.82;7.72;;;;;;;3.73;40.08;101748.47;5103144;28;20047;-60
2022/03/16 07:00:45;;;;;;;11.82;6.50;;;;;;;3.63;39.81;101745.56;5101815;28;20329;-61
2022/03/16 07:03:11;;;;;;;10.95;5.68;;;;;;;4.46;39.30;101741.84;5103086;28;20073;-61
2022/03/16 07:05:39;;;;;;;9.82;5.55;;;;;;;4.01;38.46;101765.81;5102900;28;20087;-60
2022/03/16 07:08:10;;;;;;;7.43;5.68;;;;;;;4.30;37.70;101745.53;5102802;28;20024;-60
2022/03/16 07:10:38;;;;;;;9.63;5.93;;;;;;;4.62;37.24;101738.19;5101540;28;20032;-60
2022/03/16 07:13:04;;;;;;;6.68;5.68;;;;;;;4.46;38.18;101735.06;5102897;28;20043;-60
2022/03/16 07:15:32;;;;;;;11.18;6.00;;;;;;;5.21;37.38;101748.78;5102582;28;20042;-59
2022/03/16 07:17:58;;;;;;;9.73;5.72;;;;;;;4.11;37.52;101741.41;5102930;28;20032;-59
2022/03/16 07:20:23;;;;;;;10.30;6.30;;;;;;;4.38;36.59;101749.28;5102806;28;20028;-60
2022/03/16 07:23:09;;;;;;;10.13;6.10;;;;;;;3.42;37.51;101706.22;5102716;28;20201;-61
2022/03/16 07:25:40;;;;;;;9.93;6.32;;;;;;;3.47;38.10;101755.97;5103292;28;20024;-60
2022/03/16 07:28:07;;;;;;;12.55;6.38;;;;;;;1.91;40.01;101715.91;5106665;28;20270;-60
2022/03/16 07:30:33;;;;;;;12.02;8.07;;;;;;;1.84;40.78;101759.81;5106368;28;20024;-60
2022/03/16 07:32:59;;;;;;;13.75;8.05;;;;;;;1.73;41.46;101756.78;5105451;28;20118;-60
2022/03/16 07:35:27;;;;;;;13.68;8.48;;;;;;;2.54;39.87;101752.00;5105872;28;20043;-64
2022/03/16 07:37:55;;;;;;;14.07;8.98;;;;;;;1.88;40.30;101695.31;5087703;28;20024;-61
2022/03/16 07:40:23;;;;;;;15.32;7.97;;;;;;;2.87;39.33;101720.19;5106179;28;20035;-60
2022/03/16 07:42:50;;;;;;;13.27;7.55;;;;;;;4.26;37.65;101748.81;5106150;28;20080;-61
2022/03/16 07:45:18;;;;;;;13.13;7.80;;;;;;;2.63;38.55;101753.25;5106346;28;20028;-59
2022/03/16 07:47:49;;;;;;;16.85;8.20;;;;;;;3.24;37.40;101755.03;5106001;28;20028;-59
2022/03/16 07:50:16;;;;;;;15.57;7.07;;;;;;;2.20;39.41;101760.69;5105987;28;20047;-60
2022/03/16 07:52:42;;;;;;;9.38;5.88;;;;;;;1.13;40.32;101757.25;5105728;28;20051;-59
2022/03/16 07:55:08;;;;;;;13.30;7.32;;;;;;;1.02;40.80;101759.22;5105594;28;20092;-60
2022/03/16 07:57:34;;;;;;;13.02;7.15;;;;;;;1.82;39.25;101757.19;5104643;28;20028;-60
2022/03/16 08:00:00;;;;;;;9.75;6.75;;;;;;;2.63;38.18;101759.22;5105607;28;20024;-60
2022/03/16 08:02:29;;;;;;;13.10;6.72;;;;;;;2.03;38.41;101759.91;5104388;28;20065;-61
2022/03/16 08:04:57;;;;;;;13.25;7.88;;;;;;;1.63;40.18;101752.03;5105583;28;20042;-61
2022/03/16 08:07:25;;;;;;;11.02;6.88;;;;;;;1.89;40.27;101753.28;5105126;28;20019;-60
2022/03/16 08:09:51;;;;;;;8.45;5.95;;;;;;;1.19;40.13;101749.88;5105152;28;20039;-60
2022/03/16 08:12:16;;;;;;;10.73;7.07;;;;;;;0.59;40.97;101753.59;5105574;28;20046;-60
2022/03/16 08:14:42;;;;;;;11.20;6.30;;;;;;;0.22;42.39;101757.59;5104432;28;20069;-60
2022/03/16 08:17:07;;;;;;;10.52;6.57;;;;;;;0.08;42.38;101755.97;5105415;28;20027;-60
2022/03/16 08:19:33;;;;;;;15.25;7.57;;;;;;;0.95;41.87;101751.19;5105380;28;20024;-60
2022/03/16 08:21:59;;;;;;;13.32;6.65;;;;;;;1.55;40.56;101741.41;5105227;28;20038;-59
2022/03/16 08:24:24;;;;;;;10.73;6.25;;;;;;;1.75;40.01;101737.28;5105347;28;20036;-59
2022/03/16 08:26:50;;;;;;;10.93;6.80;;;;;;;1.52;40.56;101746.38;5105372;28;20093;-59
2022/03/16 08:29:16;;;;;;;9.73;6.10;;;;;;;1.50;40.29;101738.66;5087291;28;20020;-59
2022/03/16 08:31:41;;;;;;;10.57;5.93;;;;;;;1.31;40.63;101749.66;5105128;28;20020;-60
2022/03/16 08:34:07;;;;;;;11.27;6.82;;;;;;;0.95;41.31;101751.19;5105044;28;20036;-61
2022/03/16 08:36:32;;;;;;;10.20;6.22;;;;;;;0.82;41.56;101763.31;5103828;28;20032;-60
2022/03/16 08:39:00;;;;;;;11.50;6.68;;;;;;;1.09;40.84;101754.47;5104641;28;20042;-60
2022/03/16 08:41:26;;;;;;;14.48;7.22;;;;;;;0.64;41.98;101747.94;5103636;28;20042;-60
2022/03/16 08:43:51;;;;;;;9.98;7.28;;;;;;;0.64;42.19;101739.41;5105052;28;20020;-61
2022/03/16 08:46:17;;;;;;;11.27;7.95;;;;;;;0.78;42.14;101755.44;5104932;28;20332;-59
2022/03/16 08:48:42;;;;;;;9.95;6.10;;;;;;;-0.08;42.92;101761.88;5104963;28;20024;-62
2022/03/16 08:51:08;;;;;;;15.10;7.30;;;;;;;1.09;41.65;101747.66;5103658;28;20027;-59
2022/03/16 08:53:35;;;;;;;13.52;7.20;;;;;;;1.78;39.88;101754.44;5091735;28;20077;-59
2022/03/16 08:56:01;;;;;;;13.38;6.88;;;;;;;1.73;39.88;101749.97;5084438;28;20366;-59
2022/03/16 08:58:27;;;;;;;11.77;6.65;;;;;;;1.93;39.55;101754.31;5083812;28;20070;-60
2022/03/16 09:00:53;;;;;;;9.20;6.65;;;;;;;1.08;39.89;101758.66;5084339;28;20027;-59
2022/03/16 09:03:19;;;;;;;12.77;6.55;;;;;;;2.21;40.21;101747.13;5101605;28;20020;-59
2022/03/16 09:05:44;;;;;;;11.65;6.10;;;;;;;1.35;40.39;101758.31;5104201;28;20058;-59
2022/03/16 09:08:10;;;;;;;8.75;5.38;;;;;;;1.52;39.39;101751.50;5102713;28;20016;-60
2022/03/16 09:10:36;;;;;;;10.25;5.22;;;;;;;2.38;40.21;101749.56;5103612;28;20082;-58
2022/03/16 09:13:04;;;;;;;7.97;5.30;;;;;;;1.57;38.68;101751.72;5104141;28;20069;-60
2022/03/16 09:15:30;;;;;;;10.23;5.78;;;;;;;1.79;38.88;101757.06;5103868;28;20024;-59
2022/03/16 09:17:56;;;;;;;8.73;5.60;;;;;;;2.07;38.58;101745.59;5103655;28;20368;-59
2022/03/16 09:20:21;;;;;;;8.30;6.20;;;;;;;1.55;39.65;101738.88;5104409;28;20036;-59
2022/03/16 09:22:47;;;;;;;8.70;6.15;;;;;;;2.31;38.41;101742.41;5104154;28;20019;-59
2022/03/16 09:25:13;;;;;;;8.88;6.07;;;;;;;2.35;37.66;101749.41;5103735;28;20035;-60
2022/03/16 09:27:38;;;;;;;10.38;6.38;;;;;;;2.06;38.88;101741.28;5103777;28;20043;-59
2022/03/16 09:30:05;;;;;;;11.63;6.30;;;;;;;1.69;39.46;101742.09;5103772;28;20193;-59
2022/03/16 09:32:33;;;;;;;8.10;5.22;;;;;;;1.79;39.83;101736.63;5103504;28;20343;-59
2022/03/16 09:34:59;;;;;;;10.60;5.40;;;;;;;0.86;40.42;101734.63;5103305;28;20020;-59
2022/03/16 09:37:25;;;;;;;7.72;4.75;;;;;;;1.23;40.55;101738.16;5102257;28;20331;-58
2022/03/16 09:39:51;;;;;;;9.07;4.93;;;;;;;0.33;41.24;101745.44;5103514;28;20083;-59
2022/03/16 09:42:19;;;;;;;5.75;3.92;;;;;;;0.17;41.09;101743.72;5103318;28;20027;-59
2022/03/16 09:44:46;;;;;;;7.05;4.85;;;;;;;0.21;42.02;101750.72;5103237;28;20097;-59
2022/03/16 09:47:12;;;;;;;10.30;5.00;;;;;;;0.31;41.02;101747.00;5099957;28;20023;-59
2022/03/16 09:49:39;;;;;;;8.30;5.32;;;;;;;0.46;41.40;101734.22;5101709;28;20209;-58
2022/03/16 09:52:07;;;;;;;8.30;5.07;;;;;;;0.11;41.89;101734.06;5103097;28;20309;-59
2022/03/16 09:54:33;;;;;;;10.05;5.32;;;;;;;0.33;42.15;101736.13;5102686;28;20024;-58
2022/03/16 09:57:00;;;;;;;9.80;6.22;;;;;;;0.44;41.95;101736.69;5103074;28;20036;-60
2022/03/16 09:59:25;;;;;;;9.90;6.30;;;;;;;0.55;42.56;101737.25;5102872;28;20034;-59
2022/03/16 10:02:07;;;;;;;9.40;5.30;;;;;;;0.37;42.00;101670.00;5102013;28;20051;-60
2022/03/16 10:04:35;;;;;;;8.15;4.97;;;;;;;0.51;41.68;101748.97;5100491;28;20024;-59
2022/03/16 10:07:01;;;;;;;7.47;5.00;;;;;;;0.08;43.53;101731.34;5103250;28;20016;-59
2022/03/16 10:15:19;;;;;;;7.20;5.25;;;;;;;0.19;43.29;101734.50;5101354;28;20062;-59
2022/03/16 10:17:56;;;;;;;10.82;5.85;;;;;;;0.49;42.40;101731.84;5102421;28;20081;-59
2022/03/16 10:20:39;;;;;;;12.23;5.95;;;;;;;0.83;44.60;101718.31;5101759;28;20321;-59
2022/03/16 10:23:08;;;;;;;8.93;5.90;;;;;;;0.77;42.20;101720.50;5102091;28;20045;-59
2022/03/16 10:25:45;;;;;;;9.20;5.97;;;;;;;0.71;42.27;101745.72;5100391;28;20024;-58
2022/03/16 10:28:18;;;;;;;8.57;5.45;;;;;;;0.67;41.42;101725.16;5101470;28;20034;-59
2022/03/16 10:30:58;;;;;;;8.40;4.97;;;;;;;0.29;42.21;101675.59;5102845;28;20083;-59
2022/03/16 10:33:24;;;;;;;10.75;5.78;;;;;;;0.64;41.93;101739.41;5102599;28;20212;-60
2022/03/16 10:36:03;;;;;;;10.57;5.60;;;;;;;0.59;42.57;101736.63;5102808;28;20321;-59
2022/03/16 10:38:30;;;;;;;6.80;4.68;;;;;;;0.30;41.77;101743.59;5102848;28;20022;-60
2022/03/16 10:41:11;;;;;;;6.38;4.72;;;;;;;0.26;41.69;101738.25;5102888;28;20016;-59
2022/03/16 10:46:40;;;;;;;7.93;4.93;;;;;;;0.38;40.85;101735.50;5101602;28;20099;-59
2022/03/16 10:49:12;;;;;;;9.40;5.90;;;;;;;0.84;40.91;101728.56;5101930;28;20032;-59
2022/03/16 10:51:38;;;;;;;8.57;5.97;;;;;;;1.17;41.26;101727.66;5102559;28;20028;-58
2022/03/16 10:54:05;;;;;;;7.28;5.35;;;;;;;1.10;40.64;101715.38;5102443;28;20313;-58
2022/03/16 10:56:31;;;;;;;6.82;4.93;;;;;;;1.39;40.55;101719.38;5099958;28;20023;-59
2022/03/16 10:58:58;;;;;;;7.72;5.72;;;;;;;0.78;41.27;101702.75;5102583;28;20020;-60
2022/03/16 11:01:26;;;;;;;8.48;5.65;;;;;;;0.20;42.22;101725.19;5104469;28;20313;-60
2022/03/16 11:03:53;;;;;;;8.18;5.07;;;;;;;0.36;41.66;101726.88;5103729;28;20099;-59
2022/03/16 11:06:22;;;;;;;7.55;5.38;;;;;;;0.89;41.50;101705.84;5105399;28;20052;-59
2022/03/16 11:08:49;;;;;;;6.50;4.40;;;;;;;0.17;41.80;101716.59;5105951;28;20020;-58
2022/03/16 11:14:02;;;;;;;7.38;5.70;;;;;;;1.16;40.07;101731.00;5104777;28;20040;-59
2022/03/16 11:16:29;;;;;;;8.85;5.75;;;;;;;0.58;39.68;101721.25;5106191;28;20087;-60
2022/03/16 11:18:57;;;;;;;9.52;5.35;;;;;;;0.49;41.25;101704.66;5104600;28;20023;-58
2022/03/16 11:21:30;;;;;;;9.90;5.97;;;;;;;0.72;41.00;101660.78;5106048;28;20031;-58
2022/03/16 11:24:16;;;;;;;8.73;5.10;;;;;;;0.54;41.69;101712.53;5106024;28;20035;-58
2022/03/16 11:27:12;;;;;;;8.98;5.22;;;;;;;0.33;41.58;101722.50;5106140;28;20024;-59
2022/03/16 11:30:00;;;;;;;7.15;4.95;;;;;;;0.07;40.88;101733.81;5103060;28;20244;-61
2022/03/16 11:32:35;;;;;;;7.55;5.20;;;;;;;0.33;41.07;101715.72;5105035;28;20221;-59